createdAt,value
2019-03-04T00:00:54.858Z,12.70
2019-03-04T00:03:25.038Z,12.80
2019-03-04T00:05:55.119Z,13.00
2019-03-04T00:08:25.006Z,12.90
2019-03-04T00:10:54.990Z,12.70
2019-03-04T00:13:25.484Z,12.80
2019-03-04T00:15:55.631Z,12.70
2019-03-04T00:18:25.585Z,12.20
2019-03-04T00:20:55.809Z,12.30
2019-03-04T00:23:25.831Z,12.40
2019-03-04T00:25:55.861Z,12.20
2019-03-04T00:28:25.893Z,12.30
2019-03-04T00:31:15.333Z,12.40
2019-03-04T00:33:45.416Z,12.20
2019-03-04T00:36:15.471Z,12.10
2019-03-04T00:38:46.550Z,11.90
2019-03-04T00:41:16.933Z,12.00
2019-03-04T00:43:46.826Z,11.90
2019-03-04T00:46:16.852Z,12.10
2019-03-04T00:48:46.951Z,12.40
2019-03-04T00:51:17.153Z,12.60
2019-03-04T00:53:47.357Z,12.30
2019-03-04T00:56:17.379Z,12.10
2019-03-04T00:58:47.534Z,12.20
2019-03-04T01:01:17.563Z,12.20
2019-03-04T01:03:47.951Z,12.30
2019-03-04T01:06:18.428Z,12.30
2019-03-04T01:08:48.586Z,12.10
2019-03-04T01:11:18.668Z,12.10
2019-03-04T01:13:48.877Z,12.20
2019-03-04T01:16:19.092Z,12.30
2019-03-04T01:18:49.302Z,12.00
2019-03-04T01:21:19.379Z,11.80
2019-03-04T01:23:51.489Z,11.70
2019-03-04T01:26:21.852Z,11.40
2019-03-04T01:28:52.303Z,11.80
2019-03-04T01:31:22.282Z,12.00
2019-03-04T01:33:52.390Z,12.00
2019-03-04T01:36:22.554Z,12.20
2019-03-04T01:38:52.648Z,12.30
2019-03-04T01:41:22.745Z,12.30
2019-03-04T01:43:52.968Z,12.40
2019-03-04T01:46:23.123Z,12.40
2019-03-04T01:48:53.139Z,12.00
2019-03-04T01:51:23.057Z,11.70
2019-03-04T01:53:53.189Z,11.80
2019-03-04T01:56:23.257Z,11.80
2019-03-04T01:58:53.249Z,12.00
2019-03-04T02:01:22.866Z,12.20
2019-03-04T02:03:52.620Z,12.30
2019-03-04T02:06:22.493Z,12.40
2019-03-04T02:08:53.082Z,12.30
2019-03-04T02:11:23.145Z,12.10
2019-03-04T02:13:53.217Z,12.10
2019-03-04T02:16:23.428Z,11.90
2019-03-04T02:18:53.572Z,11.80
2019-03-04T02:21:23.559Z,11.70
2019-03-04T02:23:53.704Z,11.80
2019-03-04T02:26:23.722Z,11.80
2019-03-04T02:28:53.947Z,12.00
2019-03-04T02:31:24.115Z,12.10
2019-03-04T02:33:54.206Z,12.20
2019-03-04T02:36:24.613Z,12.20
2019-03-04T02:38:55.246Z,12.30
2019-03-04T02:41:25.746Z,12.20
2019-03-04T02:43:55.873Z,12.00
2019-03-04T02:46:26.025Z,12.10
2019-03-04T02:48:56.203Z,12.20
2019-03-04T02:51:26.417Z,12.20
2019-03-04T02:53:56.396Z,12.20
2019-03-04T02:56:26.641Z,11.90
2019-03-04T02:58:56.638Z,11.70
2019-03-04T03:01:26.781Z,11.40
2019-03-04T03:03:56.876Z,11.30
2019-03-04T03:06:27.016Z,11.50
2019-03-04T03:08:57.052Z,11.30
2019-03-04T03:11:27.089Z,11.30
2019-03-04T03:13:57.422Z,11.20
2019-03-04T03:16:27.428Z,11.10
2019-03-04T03:18:57.414Z,11.00
2019-03-04T03:21:27.481Z,11.10
2019-03-04T03:23:59.361Z,11.50
2019-03-04T03:26:29.078Z,11.50
2019-03-04T03:28:59.553Z,11.50
2019-03-04T03:31:29.700Z,11.70
2019-03-04T03:33:59.841Z,11.50
2019-03-04T03:36:30.014Z,11.30
2019-03-04T03:39:00.114Z,11.30
2019-03-04T03:41:30.364Z,11.20
2019-03-04T03:44:00.448Z,11.30
2019-03-04T03:46:30.873Z,11.50
2019-03-04T03:49:01.100Z,11.60
2019-03-04T03:51:31.217Z,11.40
2019-03-04T03:54:01.211Z,11.10
2019-03-04T03:56:31.854Z,11.40
2019-03-04T03:59:01.808Z,11.40
2019-03-04T04:01:31.931Z,11.50
2019-03-04T04:04:02.601Z,11.60
2019-03-04T04:06:33.112Z,11.70
2019-03-04T04:09:02.995Z,11.50
2019-03-04T04:11:34.995Z,11.50
2019-03-04T04:14:05.386Z,11.40
2019-03-04T04:16:35.574Z,11.30
2019-03-04T04:19:05.500Z,11.30
2019-03-04T04:21:35.601Z,11.20
2019-03-04T04:24:06.403Z,11.30
2019-03-04T04:26:36.879Z,11.40
2019-03-04T04:29:08.666Z,11.40
2019-03-04T04:31:38.864Z,11.50
2019-03-04T04:34:08.947Z,11.70
2019-03-04T04:36:39.067Z,11.80
2019-03-04T04:39:09.172Z,11.80
2019-03-04T04:41:39.468Z,11.80
2019-03-04T04:44:09.630Z,11.70
2019-03-04T04:46:52.975Z,11.40
2019-03-04T04:49:23.413Z,11.50
2019-03-04T04:51:53.723Z,11.60
2019-03-04T04:54:23.752Z,11.90
2019-03-04T04:56:53.933Z,11.80
2019-03-04T04:59:24.208Z,11.80
2019-03-04T05:01:54.678Z,11.90
2019-03-04T05:04:25.144Z,11.80
2019-03-04T05:06:55.125Z,11.80
2019-03-04T05:09:25.304Z,11.80
2019-03-04T05:11:55.573Z,11.80
2019-03-04T05:14:25.754Z,12.00
2019-03-04T05:16:56.357Z,12.00
2019-03-04T05:19:26.472Z,12.00
2019-03-04T05:21:56.574Z,12.10
2019-03-04T05:24:26.938Z,12.00
2019-03-04T05:26:56.944Z,12.00
2019-03-04T05:29:26.991Z,12.00
2019-03-04T05:31:57.331Z,12.00
2019-03-04T05:34:27.314Z,11.80
2019-03-04T05:36:57.378Z,11.90
2019-03-04T05:39:27.357Z,11.80
2019-03-04T05:42:01.423Z,11.80
2019-03-04T05:44:31.507Z,11.80
2019-03-04T05:47:01.455Z,11.70
2019-03-04T05:49:31.619Z,11.70
2019-03-04T05:52:01.899Z,11.50
2019-03-04T05:54:32.226Z,11.50
2019-03-04T05:57:02.453Z,11.60
2019-03-04T05:59:33.118Z,11.50
2019-03-04T06:02:06.066Z,11.50
2019-03-04T06:04:36.308Z,11.60
2019-03-04T06:07:08.238Z,11.80
2019-03-04T06:09:38.352Z,11.50
2019-03-04T06:12:08.607Z,11.50
2019-03-04T06:14:39.176Z,11.40
2019-03-04T06:17:08.902Z,11.30
2019-03-04T06:19:39.002Z,11.30
2019-03-04T06:22:09.163Z,11.20
2019-03-04T06:24:39.367Z,11.30
2019-03-04T06:27:09.354Z,11.20
2019-03-04T06:29:39.438Z,11.30
2019-03-04T06:32:09.498Z,11.30
2019-03-04T06:34:39.619Z,11.50
2019-03-04T06:37:09.617Z,11.60
2019-03-04T06:39:39.904Z,11.60
2019-03-04T06:42:10.262Z,11.70
2019-03-04T06:44:40.376Z,11.70
2019-03-04T06:47:10.419Z,11.70
2019-03-04T06:49:40.856Z,11.70
2019-03-04T06:52:10.917Z,11.60
2019-03-04T06:54:43.820Z,11.50
2019-03-04T06:57:15.741Z,11.40
2019-03-04T07:00:15.870Z,11.40
2019-03-04T07:02:46.503Z,11.50
2019-03-04T07:05:25.387Z,11.50
2019-03-04T07:07:55.416Z,11.60
2019-03-04T07:10:25.739Z,11.70
2019-03-04T07:12:56.017Z,11.80
2019-03-04T07:15:26.230Z,11.60
2019-03-04T07:17:56.272Z,11.60
2019-03-04T07:20:27.258Z,11.60
2019-03-04T07:22:57.373Z,11.60
2019-03-04T07:25:27.574Z,11.70
2019-03-04T07:27:57.801Z,11.70
2019-03-04T07:30:28.016Z,11.60
2019-03-04T07:32:58.122Z,11.50
2019-03-04T07:35:28.807Z,11.60
2019-03-04T07:38:13.712Z,11.90
2019-03-04T07:40:43.846Z,11.90
2019-03-04T07:43:14.010Z,11.80
2019-03-04T07:45:44.306Z,12.00
2019-03-04T07:48:14.272Z,12.20
2019-03-04T07:50:44.335Z,12.10
2019-03-04T07:53:14.461Z,12.20
2019-03-04T07:55:44.525Z,12.40
2019-03-04T07:58:14.605Z,12.40
2019-03-04T08:00:45.083Z,12.60
2019-03-04T08:03:15.500Z,12.80
2019-03-04T08:05:45.621Z,12.40
2019-03-04T08:08:15.693Z,11.60
2019-03-04T08:11:03.843Z,11.30
2019-03-04T08:13:45.914Z,11.40
2019-03-04T08:16:15.733Z,11.60
2019-03-04T08:18:45.794Z,11.80
2019-03-04T08:21:16.117Z,12.00
2019-03-04T08:23:46.274Z,12.00
2019-03-04T08:26:16.215Z,12.00
2019-03-04T08:28:46.284Z,12.00
2019-03-04T08:31:16.605Z,12.00
2019-03-04T08:33:46.664Z,12.10
2019-03-04T08:36:17.147Z,12.30
2019-03-04T08:38:47.189Z,12.40
2019-03-04T08:41:17.195Z,12.40
2019-03-04T08:43:47.245Z,12.60
2019-03-04T08:46:17.157Z,12.70
2019-03-04T08:48:47.270Z,12.80
2019-03-04T08:51:17.264Z,12.80
2019-03-04T08:53:47.622Z,12.90
2019-03-04T08:56:17.949Z,12.90
2019-03-04T08:58:48.062Z,13.00
2019-03-04T09:01:18.449Z,13.00
2019-03-04T09:03:48.549Z,13.10
2019-03-04T09:06:18.875Z,13.20
2019-03-04T09:08:49.230Z,13.20
2019-03-04T09:11:19.365Z,13.40
2019-03-04T09:13:50.026Z,13.70
2019-03-04T09:16:20.151Z,13.70
2019-03-04T09:18:50.197Z,13.70
2019-03-04T09:21:20.188Z,13.40
2019-03-04T09:23:50.310Z,13.50
2019-03-04T09:26:20.152Z,13.60
2019-03-04T09:28:50.334Z,13.60
2019-03-04T09:31:20.558Z,13.70
2019-03-04T09:33:50.698Z,13.70
2019-03-04T09:36:20.781Z,13.80
2019-03-04T09:38:51.274Z,13.70
2019-03-04T09:41:21.360Z,13.70
2019-03-04T09:43:51.508Z,13.80
2019-03-04T09:46:21.927Z,13.90
2019-03-04T09:48:52.249Z,13.90
2019-03-04T09:51:24.545Z,14.00
2019-03-04T09:53:54.157Z,14.00
2019-03-04T09:56:24.356Z,14.00
2019-03-04T09:58:54.356Z,13.80
2019-03-04T10:01:27.485Z,13.90
2019-03-04T10:04:03.489Z,13.90
2019-03-04T10:06:48.637Z,13.90
2019-03-04T10:09:33.795Z,13.90
2019-03-04T10:12:25.048Z,13.90
2019-03-04T10:15:27.168Z,14.00
2019-03-04T10:18:02.963Z,14.00
2019-03-04T10:20:41.619Z,13.90
2019-03-04T10:23:17.604Z,13.90
2019-03-04T10:25:56.851Z,14.00
2019-03-04T10:28:48.126Z,14.20
2019-03-04T10:31:27.521Z,14.20
2019-03-04T10:34:29.594Z,14.30
2019-03-04T10:37:22.048Z,14.50
2019-03-04T10:40:04.186Z,15.20
2019-03-04T10:42:55.381Z,16.00
2019-03-04T10:45:34.091Z,16.80
2019-03-04T10:48:04.376Z,17.30
2019-03-04T10:50:34.213Z,17.20
2019-03-04T10:53:04.593Z,17.10
2019-03-04T10:55:41.942Z,16.50
2019-03-04T10:58:06.500Z,16.30
2019-03-04T11:00:36.851Z,16.10
2019-03-04T11:03:06.959Z,16.10
2019-03-04T11:05:36.833Z,15.90
2019-03-04T11:08:07.128Z,15.90
2019-03-04T11:10:37.491Z,16.10
2019-03-04T11:13:07.684Z,16.10
2019-03-04T11:15:38.202Z,16.10
2019-03-04T11:18:08.248Z,16.10
2019-03-04T11:20:38.607Z,16.20
2019-03-04T11:23:09.019Z,16.20
2019-03-04T11:25:40.373Z,16.30
2019-03-04T11:28:10.589Z,16.30
2019-03-04T11:30:40.893Z,16.70
2019-03-04T11:33:11.143Z,17.40
2019-03-04T11:35:41.065Z,18.00
2019-03-04T11:38:38.194Z,18.50
2019-03-04T11:41:10.275Z,18.80
2019-03-04T11:43:40.374Z,18.90
2019-03-04T11:46:11.301Z,18.90
2019-03-04T11:48:41.394Z,18.80
2019-03-04T11:51:11.447Z,18.60
2019-03-04T11:53:41.458Z,18.40
2019-03-04T11:56:11.744Z,18.10
2019-03-04T11:58:42.332Z,17.80
2019-03-04T12:01:16.991Z,17.60
2019-03-04T12:03:47.656Z,17.40
2019-03-04T12:06:17.774Z,17.20
2019-03-04T12:08:48.004Z,17.00
2019-03-04T12:11:17.966Z,16.80
2019-03-04T12:13:48.063Z,16.70
2019-03-04T12:16:18.108Z,16.50
2019-03-04T12:18:47.942Z,16.40
2019-03-04T12:21:18.186Z,16.30
2019-03-04T12:23:48.372Z,16.30
2019-03-04T12:26:18.803Z,16.30
2019-03-04T12:28:49.057Z,16.40
2019-03-04T12:31:19.091Z,16.60
2019-03-04T12:33:49.200Z,16.90
2019-03-04T12:36:19.136Z,17.00
2019-03-04T12:38:49.157Z,17.10
2019-03-04T12:41:19.299Z,17.10
2019-03-04T12:43:49.501Z,17.10
2019-03-04T12:46:19.565Z,17.20
2019-03-04T12:48:49.687Z,17.50
2019-03-04T12:51:23.152Z,18.20
2019-03-04T12:53:52.041Z,18.80
2019-03-04T12:56:22.095Z,19.20
2019-03-04T12:58:52.103Z,19.50
2019-03-04T13:01:22.157Z,19.80
2019-03-04T13:04:11.275Z,20.10
2019-03-04T13:06:41.231Z,20.30
2019-03-04T13:09:14.786Z,20.60
2019-03-04T13:11:44.662Z,20.80
2019-03-04T13:14:16.027Z,20.90
2019-03-04T13:16:45.889Z,21.10
2019-03-04T13:19:17.306Z,21.20
2019-03-04T13:21:47.056Z,21.30
2019-03-04T13:24:16.745Z,21.30
2019-03-04T13:26:46.453Z,21.40
2019-03-04T13:29:16.288Z,21.50
2019-03-04T13:31:46.064Z,21.50
2019-03-04T13:34:15.892Z,21.60
2019-03-04T13:36:45.661Z,21.80
2019-03-04T13:39:15.725Z,22.00
2019-03-04T13:41:45.674Z,22.20
2019-03-04T13:44:15.946Z,22.40
2019-03-04T13:46:45.973Z,22.60
2019-03-04T13:49:16.029Z,22.70
2019-03-04T13:51:46.371Z,22.80
2019-03-04T13:54:16.499Z,22.90
2019-03-04T13:56:46.179Z,23.00
2019-03-04T13:59:16.014Z,23.10
2019-03-04T14:01:46.260Z,23.10
2019-03-04T14:04:16.652Z,23.20
2019-03-04T14:06:46.791Z,23.20
2019-03-04T14:09:18.504Z,23.30
2019-03-04T14:11:48.803Z,23.40
2019-03-04T14:14:18.846Z,23.50
2019-03-04T14:16:49.431Z,23.60
2019-03-04T14:19:19.559Z,23.70
2019-03-04T14:21:49.577Z,23.80
2019-03-04T14:24:19.722Z,23.80
2019-03-04T14:26:49.825Z,23.90
2019-03-04T14:29:19.804Z,24.00
2019-03-04T14:31:49.937Z,24.00
2019-03-04T14:34:20.176Z,24.00
2019-03-04T14:36:50.438Z,23.90
2019-03-04T14:39:20.975Z,23.90
2019-03-04T14:41:52.757Z,23.90
2019-03-04T14:44:22.885Z,23.80
2019-03-04T14:46:52.923Z,23.80
2019-03-04T14:49:22.999Z,23.70
2019-03-04T14:51:53.062Z,23.60
2019-03-04T14:54:23.229Z,23.50
2019-03-04T14:56:53.390Z,23.30
2019-03-04T14:59:23.758Z,23.00
2019-03-04T15:01:54.032Z,22.70
2019-03-04T15:04:24.033Z,22.60
2019-03-04T15:06:54.178Z,22.30
2019-03-04T15:09:24.323Z,22.00
2019-03-04T15:11:54.483Z,21.70
2019-03-04T15:14:24.759Z,21.40
2019-03-04T15:17:02.955Z,21.10
2019-03-04T15:19:26.730Z,20.80
2019-03-04T15:21:56.798Z,20.60
2019-03-04T15:24:26.811Z,20.60
2019-03-04T15:26:57.047Z,20.40
2019-03-04T15:29:27.053Z,20.20
2019-03-04T15:31:57.072Z,20.10
2019-03-04T15:34:27.055Z,20.00
2019-03-04T15:37:16.467Z,19.80
2019-03-04T15:39:46.535Z,19.80
2019-03-04T15:42:16.549Z,19.60
2019-03-04T15:44:46.552Z,19.40
2019-03-04T15:47:16.610Z,19.30
2019-03-04T15:49:47.118Z,19.10
2019-03-04T15:52:37.976Z,19.00
2019-03-04T15:55:10.413Z,18.90
2019-03-04T15:57:40.565Z,18.70
2019-03-04T16:00:13.350Z,18.50
2019-03-04T16:02:43.351Z,18.40
2019-03-04T16:05:15.094Z,18.30
2019-03-04T16:07:45.794Z,18.30
2019-03-04T16:10:29.342Z,18.10
2019-03-04T16:12:59.325Z,18.10
2019-03-04T16:15:30.170Z,18.10
2019-03-04T16:18:00.788Z,18.20
2019-03-04T16:20:31.250Z,18.30
2019-03-04T16:23:01.409Z,18.20
2019-03-04T16:25:31.468Z,18.10
2019-03-04T16:28:04.559Z,18.00
2019-03-04T16:30:34.635Z,17.80
2019-03-04T16:33:04.919Z,17.60
2019-03-04T16:35:35.757Z,17.50
2019-03-04T16:38:05.740Z,17.40
2019-03-04T16:40:35.741Z,17.30
2019-03-04T16:43:05.865Z,17.20
2019-03-04T16:45:35.999Z,17.10
2019-03-04T16:48:06.101Z,17.00
2019-03-04T16:50:41.745Z,16.80
2019-03-04T16:53:26.108Z,16.70
2019-03-04T16:55:56.254Z,16.50
2019-03-04T16:58:26.246Z,16.30
2019-03-04T17:00:56.857Z,16.20
2019-03-04T17:03:26.955Z,16.20
2019-03-04T17:05:57.141Z,16.10
2019-03-04T17:08:27.373Z,16.00
2019-03-04T17:10:57.483Z,16.00
2019-03-04T17:13:28.040Z,15.90
2019-03-04T17:15:58.378Z,15.80
2019-03-04T17:18:28.383Z,15.80
2019-03-04T17:20:58.202Z,15.70
2019-03-04T17:23:28.456Z,15.60
2019-03-04T17:25:58.688Z,15.60
2019-03-04T17:28:28.772Z,15.50
2019-03-04T17:30:58.818Z,15.30
2019-03-04T17:33:28.773Z,15.30
2019-03-04T17:35:58.880Z,15.30
2019-03-04T17:38:29.357Z,15.20
2019-03-04T17:40:59.837Z,15.20
2019-03-04T17:43:29.762Z,15.10
2019-03-04T17:46:00.212Z,15.10
2019-03-04T17:48:30.151Z,15.10
2019-03-04T17:51:00.367Z,15.00
2019-03-04T17:53:30.457Z,15.00
2019-03-04T17:56:00.466Z,14.90
2019-03-04T17:58:30.559Z,14.90
2019-03-04T18:01:00.677Z,14.80
2019-03-04T18:03:30.911Z,14.80
2019-03-04T18:06:00.627Z,14.80
2019-03-04T18:08:30.733Z,14.70
2019-03-04T18:11:00.861Z,14.70
2019-03-04T18:13:30.670Z,14.60
2019-03-04T18:16:00.381Z,14.60
2019-03-04T18:18:30.370Z,14.60
2019-03-04T18:21:00.511Z,14.60
2019-03-04T18:23:30.474Z,14.60
2019-03-04T18:26:09.688Z,14.50
2019-03-04T18:29:00.963Z,14.50
2019-03-04T18:31:48.439Z,14.50
2019-03-04T18:34:27.411Z,14.50
2019-03-04T18:37:09.367Z,14.40
2019-03-04T18:39:50.813Z,14.40
2019-03-04T18:42:58.680Z,14.50
2019-03-04T18:45:40.487Z,14.40
2019-03-04T18:48:32.072Z,14.30
2019-03-04T18:51:02.608Z,14.30
2019-03-04T18:53:32.613Z,14.30
2019-03-04T18:56:02.838Z,14.30
2019-03-04T18:58:33.433Z,14.30
2019-03-04T19:01:05.262Z,14.30
2019-03-04T19:03:35.345Z,14.30
2019-03-04T19:06:05.398Z,14.30
2019-03-04T19:08:35.428Z,14.20
2019-03-04T19:11:05.908Z,14.20
2019-03-04T19:13:37.941Z,14.20
2019-03-04T19:16:08.686Z,14.20
2019-03-04T19:18:39.084Z,14.20
2019-03-04T19:21:09.348Z,14.20
2019-03-04T19:23:39.437Z,14.20
2019-03-04T19:26:09.701Z,14.20
2019-03-04T19:28:39.784Z,14.20
2019-03-04T19:31:09.842Z,14.20
2019-03-04T19:33:39.767Z,14.20
2019-03-04T19:36:09.805Z,14.20
2019-03-04T19:38:41.413Z,14.20
2019-03-04T19:41:11.496Z,14.20
2019-03-04T19:43:41.691Z,14.20
2019-03-04T19:46:12.005Z,14.20
2019-03-04T19:48:42.038Z,14.20
2019-03-04T19:51:13.697Z,14.20
2019-03-04T19:53:43.979Z,14.20
2019-03-04T19:56:14.160Z,14.20
2019-03-04T19:58:44.246Z,14.20
2019-03-04T20:01:14.604Z,14.30
2019-03-04T20:03:46.141Z,14.20
2019-03-04T20:06:16.350Z,14.20
2019-03-04T20:08:51.140Z,14.20
2019-03-04T20:11:21.933Z,14.20
2019-03-04T20:13:52.030Z,14.20
2019-03-04T20:16:22.065Z,14.20
2019-03-04T20:18:52.195Z,14.30
2019-03-04T20:21:22.215Z,14.30
2019-03-04T20:23:52.544Z,14.30
2019-03-04T20:26:22.824Z,14.20
2019-03-04T20:28:53.251Z,14.20
2019-03-04T20:31:25.312Z,14.20
2019-03-04T20:33:57.811Z,14.20
2019-03-04T20:36:28.914Z,14.10
2019-03-04T20:38:59.315Z,14.10
2019-03-04T20:41:29.211Z,14.10
2019-03-04T20:43:58.879Z,14.10
2019-03-04T20:46:28.590Z,14.10
2019-03-04T20:48:58.272Z,14.10
2019-03-04T20:51:27.947Z,14.10
2019-03-04T20:53:57.859Z,14.10
2019-03-04T20:56:27.683Z,14.10
2019-03-04T20:59:00.376Z,14.10
2019-03-04T21:01:30.745Z,14.10
2019-03-04T21:04:00.663Z,14.10
2019-03-04T21:06:33.921Z,14.10
2019-03-04T21:09:07.481Z,14.20
2019-03-04T21:11:37.529Z,14.10
2019-03-04T21:14:07.597Z,14.10
2019-03-04T21:16:37.413Z,14.10
2019-03-04T21:19:09.233Z,14.10
2019-03-04T21:21:38.970Z,14.00
2019-03-04T21:24:08.758Z,14.00
2019-03-04T21:26:38.522Z,14.10
2019-03-04T21:29:30.155Z,14.10
2019-03-04T21:32:13.058Z,14.10
2019-03-04T21:34:58.013Z,14.00
2019-03-04T21:37:34.245Z,14.00
2019-03-04T21:40:13.023Z,14.00
2019-03-04T21:42:54.651Z,14.00
2019-03-04T21:45:39.575Z,13.90
2019-03-04T21:48:24.134Z,13.90
2019-03-04T21:51:16.360Z,13.90
2019-03-04T21:53:51.226Z,13.90
2019-03-04T21:56:24.019Z,13.90
2019-03-04T21:58:54.793Z,13.90
2019-03-04T22:01:33.442Z,13.80
2019-03-04T22:04:03.203Z,13.80
2019-03-04T22:06:33.008Z,13.80
2019-03-04T22:09:08.247Z,13.80
2019-03-04T22:11:37.985Z,13.70
2019-03-04T22:14:07.913Z,13.70
2019-03-04T22:16:37.725Z,13.70
2019-03-04T22:19:07.562Z,13.70
2019-03-04T22:21:37.187Z,13.70
2019-03-04T22:24:06.975Z,13.60
2019-03-04T22:26:36.688Z,13.60
2019-03-04T22:29:06.378Z,13.60
2019-03-04T22:31:36.230Z,13.70
2019-03-04T22:34:06.006Z,13.70
2019-03-04T22:36:35.601Z,13.60
2019-03-04T22:39:06.939Z,13.60
2019-03-04T22:41:36.719Z,13.50
2019-03-04T22:44:06.459Z,13.40
2019-03-04T22:46:36.182Z,13.50
2019-03-04T22:49:05.895Z,13.50
2019-03-04T22:51:35.683Z,13.50
2019-03-04T22:54:05.451Z,13.50
2019-03-04T22:56:35.114Z,13.20
2019-03-04T22:59:05.078Z,12.90
2019-03-04T23:01:38.379Z,12.60
2019-03-04T23:04:13.899Z,12.60
2019-03-04T23:06:49.738Z,12.40
2019-03-04T23:09:21.048Z,12.10
2019-03-04T23:11:59.458Z,12.10
2019-03-04T23:14:30.801Z,12.00
2019-03-04T23:17:00.442Z,11.90
2019-03-04T23:19:30.241Z,11.80
2019-03-04T23:21:59.903Z,11.60
2019-03-04T23:24:29.683Z,11.60
2019-03-04T23:26:59.795Z,11.60
2019-03-04T23:29:29.506Z,11.70
2019-03-04T23:31:59.228Z,11.80
2019-03-04T23:34:29.009Z,11.90
2019-03-04T23:36:58.681Z,12.00
2019-03-04T23:39:28.378Z,12.00
2019-03-04T23:41:58.353Z,12.10
2019-03-04T23:44:28.052Z,12.10
2019-03-04T23:46:57.693Z,12.20
2019-03-04T23:49:27.421Z,12.20
2019-03-04T23:51:57.135Z,12.30
2019-03-04T23:54:26.777Z,12.30
2019-03-04T23:56:56.916Z,12.40
2019-03-04T23:59:27.196Z,12.40
